Time,TemperatureF,DewpointF,PressureIn,WindDirection,WindDirectionDegrees,WindSpeedMPH,WindSpeedGustMPH,Humidity,HourlyPrecipIn,Conditions,Clouds,dailyrainin,SoftwareType,DateUTC
2013-10-28 00:07:00,48.9,44.3,30.15,WNW,292,0.0,-999.0,84,-99.99,,,0.00,Acu-Link.com,2013-10-28 04:07:00,
2013-10-28 00:22:00,48.2,43.6,30.15,WNW,292,0.0,-999.0,84,-99.99,,,0.00,Acu-Link.com,2013-10-28 04:22:00,
2013-10-28 00:37:00,48.0,43.1,30.15,WNW,292,0.0,-999.0,83,-99.99,,,0.00,Acu-Link.com,2013-10-28 04:37:00,
2013-10-28 00:52:00,48.0,43.1,30.15,WNW,292,0.0,-999.0,83,-99.99,,,0.00,Acu-Link.com,2013-10-28 04:52:00,
2013-10-28 01:07:00,48.0,43.4,30.15,WNW,292,0.0,-999.0,84,-99.99,,,0.00,Acu-Link.com,2013-10-28 05:07:00,
2013-10-28 01:23:00,48.4,43.8,30.15,NNW,337,0.0,-999.0,84,-99.99,,,0.00,Acu-Link.com,2013-10-28 05:23:00,
2013-10-28 01:38:00,48.9,44.3,30.14,NW,315,0.0,-999.0,84,-99.99,,,0.00,Acu-Link.com,2013-10-28 05:38:00,
2013-10-28 01:53:00,49.1,44.5,30.14,NW,315,0.0,-999.0,84,-99.99,,,0.00,Acu-Link.com,2013-10-28 05:53:00,
2013-10-28 02:08:00,49.5,44.9,30.14,WNW,292,0.0,-999.0,84,-99.99,,,0.00,Acu-Link.com,2013-10-28 06:08:00,
2013-10-28 02:23:00,49.8,45.2,30.14,NW,315,0.0,-999.0,84,-99.99,,,0.00,Acu-Link.com,2013-10-28 06:23:00,
2013-10-28 02:39:00,50.0,45.4,30.14,NW,315,0.0,-999.0,84,-99.99,,,0.00,Acu-Link.com,2013-10-28 06:39:00,
2013-10-28 02:54:00,50.0,45.4,30.15,WNW,292,0.0,-999.0,84,-99.99,,,0.00,Acu-Link.com,2013-10-28 06:54:00,
2013-10-28 03:09:00,50.2,45.6,30.15,WNW,292,0.0,-999.0,84,-99.99,,,0.00,Acu-Link.com,2013-10-28 07:09:00,
2013-10-28 03:24:00,50.4,45.8,30.15,WNW,292,0.0,-999.0,84,-99.99,,,0.00,Acu-Link.com,2013-10-28 07:24:00,
2013-10-28 03:40:00,50.4,45.8,30.15,WNW,292,0.0,-999.0,84,-99.99,,,0.00,Acu-Link.com,2013-10-28 07:40:00,
2013-10-28 03:55:00,50.7,46.0,30.15,NNW,337,0.0,-999.0,84,-99.99,,,0.00,Acu-Link.com,2013-10-28 07:55:00,
2013-10-28 04:10:00,50.7,46.0,30.15,NW,315,0.0,-999.0,84,-99.99,,,0.00,Acu-Link.com,2013-10-28 08:10:00,
2013-10-28 04:25:00,50.9,46.2,30.16,WNW,292,0.0,-999.0,84,-99.99,,,0.00,Acu-Link.com,2013-10-28 08:25:00,
2013-10-28 04:41:00,50.9,46.2,30.17,WNW,292,0.0,-999.0,84,-99.99,,,0.00,Acu-Link.com,2013-10-28 08:41:00,
2013-10-28 04:56:00,50.9,46.2,30.16,West,270,0.0,-999.0,84,-99.99,,,0.00,Acu-Link.com,2013-10-28 08:56:00,
2013-10-28 05:11:00,50.9,46.2,30.16,WNW,292,0.0,-999.0,84,-99.99,,,0.00,Acu-Link.com,2013-10-28 09:11:00,
2013-10-28 05:27:00,50.9,46.2,30.17,WNW,292,0.0,-999.0,84,-99.99,,,0.00,Acu-Link.com,2013-10-28 09:27:00,
2013-10-28 05:42:00,50.9,46.2,30.17,WNW,292,0.0,-999.0,84,-99.99,,,0.00,Acu-Link.com,2013-10-28 09:42:00,
2013-10-28 05:57:00,50.7,46.0,30.18,WNW,292,0.0,-999.0,84,-99.99,,,0.00,Acu-Link.com,2013-10-28 09:57:00,
2013-10-28 06:12:00,50.5,45.8,30.18,West,270,0.0,-999.0,84,-99.99,,,0.00,Acu-Link.com,2013-10-28 10:12:00,
2013-10-28 06:27:00,50.4,45.8,30.19,WNW,292,0.0,-999.0,84,-99.99,,,0.00,Acu-Link.com,2013-10-28 10:27:00,
2013-10-28 06:43:00,50.2,45.6,30.19,WNW,292,0.0,-999.0,84,-99.99,,,0.00,Acu-Link.com,2013-10-28 10:43:00,
2013-10-28 06:58:00,50.0,45.4,30.19,WNW,292,0.0,-999.0,84,-99.99,,,0.00,Acu-Link.com,2013-10-28 10:58:00,
2013-10-28 07:13:00,50.0,45.4,30.19,WNW,292,0.0,-999.0,84,-99.99,,,0.00,Acu-Link.com,2013-10-28 11:13:00,
2013-10-28 07:28:00,50.0,45.4,30.20,WNW,292,0.0,-999.0,84,-99.99,,,0.00,Acu-Link.com,2013-10-28 11:28:00,
2013-10-28 07:43:00,49.8,45.2,30.20,West,270,0.0,-999.0,84,-99.99,,,0.00,Acu-Link.com,2013-10-28 11:43:00,
2013-10-28 07:58:00,49.5,44.9,30.20,SW,225,0.0,-999.0,84,-99.99,,,0.00,Acu-Link.com,2013-10-28 11:58:00,
2013-10-28 08:14:00,49.3,44.7,30.21,SW,225,0.0,-999.0,84,-99.99,,,0.00,Acu-Link.com,2013-10-28 12:14:00,
2013-10-28 08:29:00,49.8,45.2,30.22,West,270,0.0,-999.0,84,-99.99,,,0.00,Acu-Link.com,2013-10-28 12:29:00,
2013-10-28 08:44:00,51.3,46.6,30.22,WSW,247,0.0,-999.0,84,-99.99,,,0.00,Acu-Link.com,2013-10-28 12:44:00,
2013-10-28 08:59:00,52.9,48.2,30.23,SW,225,0.0,-999.0,84,-99.99,,,0.00,Acu-Link.com,2013-10-28 12:59:00,
2013-10-28 09:14:00,54.1,49.4,30.22,WSW,247,0.0,-999.0,84,-99.99,,,0.00,Acu-Link.com,2013-10-28 13:14:00,
2013-10-28 09:29:00,56.5,51.1,30.22,SSE,157,0.0,-999.0,82,-99.99,,,0.00,Acu-Link.com,2013-10-28 13:29:00,
2013-10-28 09:44:00,57.9,51.8,30.22,ESE,112,0.0,-999.0,80,-99.99,,,0.00,Acu-Link.com,2013-10-28 13:44:00,
2013-10-28 09:59:00,59.5,51.9,30.22,WNW,292,0.0,-999.0,76,-99.99,,,0.00,Acu-Link.com,2013-10-28 13:59:00,
2013-10-28 10:14:00,62.1,51.8,30.22,ESE,112,0.0,-999.0,69,-99.99,,,0.00,Acu-Link.com,2013-10-28 14:14:00,
2013-10-28 10:30:00,64.8,51.0,30.22,West,270,0.0,-999.0,61,-99.99,,,0.00,Acu-Link.com,2013-10-28 14:30:00,
2013-10-28 10:45:00,65.5,50.3,30.22,WNW,292,2.2,-999.0,58,-99.99,,,0.00,Acu-Link.com,2013-10-28 14:45:00,
2013-10-28 11:00:00,65.3,49.7,30.22,SW,225,0.0,-999.0,57,-99.99,,,0.00,Acu-Link.com,2013-10-28 15:00:00,
2013-10-28 11:15:00,66.9,49.7,30.21,SW,225,2.2,-999.0,54,-99.99,,,0.00,Acu-Link.com,2013-10-28 15:15:00,
2013-10-28 11:30:00,68.9,47.8,30.21,SSW,202,1.7,-999.0,47,-99.99,,,0.00,Acu-Link.com,2013-10-28 15:30:00,
2013-10-28 11:45:00,69.6,47.9,30.21,West,270,1.7,-999.0,46,-99.99,,,0.00,Acu-Link.com,2013-10-28 15:45:00,
2013-10-28 12:00:00,68.9,47.3,30.22,SW,225,4.7,-999.0,46,-99.99,,,0.00,Acu-Link.com,2013-10-28 16:00:00,
2013-10-28 12:15:00,66.7,46.9,30.22,SW,225,4.7,-999.0,49,-99.99,,,0.00,Acu-Link.com,2013-10-28 16:15:00,
2013-10-28 12:30:00,65.5,47.4,30.22,West,270,1.7,-999.0,52,-99.99,,,0.00,Acu-Link.com,2013-10-28 16:30:00,
2013-10-28 12:46:00,64.6,48.1,30.23,West,270,0.0,-999.0,55,-99.99,,,0.00,Acu-Link.com,2013-10-28 16:46:00,
2013-10-28 13:01:00,63.7,48.2,30.22,WSW,247,0.0,-999.0,57,-99.99,,,0.00,Acu-Link.com,2013-10-28 17:01:00,
2013-10-28 13:16:00,64.2,48.2,30.22,WSW,247,1.7,-999.0,56,-99.99,,,0.00,Acu-Link.com,2013-10-28 17:16:00,
2013-10-28 13:31:00,65.1,48.0,30.21,WSW,247,2.7,-999.0,54,-99.99,,,0.00,Acu-Link.com,2013-10-28 17:31:00,
2013-10-28 13:46:00,65.7,47.6,30.20,SSW,202,2.2,-999.0,52,-99.99,,,0.00,Acu-Link.com,2013-10-28 17:46:00,
2013-10-28 14:01:00,65.8,47.2,30.19,WSW,247,2.2,-999.0,51,-99.99,,,0.00,Acu-Link.com,2013-10-28 18:01:00,
2013-10-28 14:17:00,65.5,46.9,30.19,SW,225,1.7,-999.0,51,-99.99,,,0.00,Acu-Link.com,2013-10-28 18:17:00,
2013-10-28 14:32:00,65.1,47.0,30.19,West,270,0.0,-999.0,52,-99.99,,,0.00,Acu-Link.com,2013-10-28 18:32:00,
2013-10-28 14:47:00,65.3,48.2,30.18,SSW,202,3.2,-999.0,54,-99.99,,,0.00,Acu-Link.com,2013-10-28 18:47:00,
2013-10-28 15:02:00,65.7,48.1,30.18,West,270,4.2,-999.0,53,-99.99,,,0.00,Acu-Link.com,2013-10-28 19:02:00,
2013-10-28 15:17:00,64.8,48.2,30.19,South,180,3.2,-999.0,55,-99.99,,,0.00,Acu-Link.com,2013-10-28 19:17:00,
2013-10-28 15:32:00,63.7,47.7,30.18,SW,225,2.2,-999.0,56,-99.99,,,0.00,Acu-Link.com,2013-10-28 19:32:00,
2013-10-28 15:47:00,63.0,47.1,30.19,SSW,202,3.7,-999.0,56,-99.99,,,0.00,Acu-Link.com,2013-10-28 19:47:00,
2013-10-28 16:02:00,63.3,47.8,30.18,WSW,247,2.2,-999.0,57,-99.99,,,0.00,Acu-Link.com,2013-10-28 20:02:00,
2013-10-28 16:17:00,64.0,48.0,30.19,WSW,247,0.0,-999.0,56,-99.99,,,0.00,Acu-Link.com,2013-10-28 20:17:00,
2013-10-28 16:32:00,63.7,47.7,30.19,West,270,0.0,-999.0,56,-99.99,,,0.00,Acu-Link.com,2013-10-28 20:32:00,
2013-10-28 16:48:00,63.3,47.8,30.20,WSW,247,0.0,-999.0,57,-99.99,,,0.00,Acu-Link.com,2013-10-28 20:48:00,
2013-10-28 17:03:00,62.8,48.3,30.21,WNW,292,0.0,-999.0,59,-99.99,,,0.00,Acu-Link.com,2013-10-28 21:03:00,
2013-10-28 17:18:00,62.4,48.3,30.20,SW,225,1.1,-999.0,60,-99.99,,,0.00,Acu-Link.com,2013-10-28 21:18:00,
2013-10-28 17:33:00,62.1,48.5,30.20,SE,135,0.0,-999.0,61,-99.99,,,0.00,Acu-Link.com,2013-10-28 21:33:00,
2013-10-28 17:48:00,61.9,48.3,30.21,SSW,202,1.7,-999.0,61,-99.99,,,0.00,Acu-Link.com,2013-10-28 21:48:00,
2013-10-28 18:03:00,61.7,48.5,30.21,SSW,202,2.7,-999.0,62,-99.99,,,0.00,Acu-Link.com,2013-10-28 22:03:00,
2013-10-28 18:18:00,61.3,48.6,30.22,SW,225,0.0,-999.0,63,-99.99,,,0.00,Acu-Link.com,2013-10-28 22:18:00,
2013-10-28 18:33:00,60.8,48.5,30.22,WSW,247,0.0,-999.0,64,-99.99,,,0.00,Acu-Link.com,2013-10-28 22:33:00,
2013-10-28 18:48:00,60.6,48.8,30.23,WSW,247,0.0,-999.0,65,-99.99,,,0.00,Acu-Link.com,2013-10-28 22:48:00,
2013-10-28 19:04:00,60.3,49.3,30.23,West,270,0.0,-999.0,67,-99.99,,,0.00,Acu-Link.com,2013-10-28 23:04:00,
2013-10-28 19:19:00,59.7,49.1,30.23,WSW,247,0.0,-999.0,68,-99.99,,,0.00,Acu-Link.com,2013-10-28 23:19:00,
2013-10-28 19:34:00,59.4,49.6,30.23,West,270,0.0,-999.0,70,-99.99,,,0.00,Acu-Link.com,2013-10-28 23:34:00,
2013-10-28 19:49:00,59.0,49.6,30.24,West,270,0.0,-999.0,71,-99.99,,,0.00,Acu-Link.com,2013-10-28 23:49:00,
2013-10-28 20:04:00,58.5,49.5,30.24,SW,225,0.0,-999.0,72,-99.99,,,0.00,Acu-Link.com,2013-10-29 00:04:00,
2013-10-28 20:19:00,58.1,49.5,30.24,WNW,292,0.0,-999.0,73,-99.99,,,0.00,Acu-Link.com,2013-10-29 00:19:00,
2013-10-28 20:35:00,57.7,49.5,30.25,West,270,0.0,-999.0,74,-99.99,,,0.00,Acu-Link.com,2013-10-29 00:35:00,
2013-10-28 20:50:00,57.4,49.2,30.25,West,270,0.0,-999.0,74,-99.99,,,0.00,Acu-Link.com,2013-10-29 00:50:00,
2013-10-28 21:05:00,57.2,49.3,30.24,WNW,292,0.0,-999.0,75,-99.99,,,0.00,Acu-Link.com,2013-10-29 01:05:00,
2013-10-28 21:20:00,57.0,49.2,30.26,SSW,202,0.0,-999.0,75,-99.99,,,0.00,Acu-Link.com,2013-10-29 01:20:00,
2013-10-28 21:35:00,56.7,49.6,30.26,West,270,0.0,-999.0,77,-99.99,,,0.00,Acu-Link.com,2013-10-29 01:35:00,
2013-10-28 21:50:00,56.5,49.7,30.26,West,270,0.0,-999.0,78,-99.99,,,0.00,Acu-Link.com,2013-10-29 01:50:00,
2013-10-28 22:05:00,56.1,49.0,30.26,West,270,0.0,-999.0,77,-99.99,,,0.00,Acu-Link.com,2013-10-29 02:05:00,
2013-10-28 22:20:00,55.4,49.0,30.26,SSW,202,0.0,-999.0,79,-99.99,,,0.00,Acu-Link.com,2013-10-29 02:20:00,
2013-10-28 22:35:00,54.9,48.5,30.27,West,270,0.0,-999.0,79,-99.99,,,0.00,Acu-Link.com,2013-10-29 02:35:00,
2013-10-28 22:50:00,54.0,48.6,30.27,West,270,0.0,-999.0,82,-99.99,,,0.00,Acu-Link.com,2013-10-29 02:50:00,
2013-10-28 23:06:00,53.2,48.2,30.28,West,270,0.0,-999.0,83,-99.99,,,0.00,Acu-Link.com,2013-10-29 03:06:00,
2013-10-28 23:21:00,52.7,47.7,30.28,West,270,0.0,-999.0,83,-99.99,,,0.00,Acu-Link.com,2013-10-29 03:21:00,
2013-10-28 23:36:00,51.8,47.1,30.28,West,270,0.0,-999.0,84,-99.99,,,0.00,Acu-Link.com,2013-10-29 03:36:00,
2013-10-28 23:51:00,51.3,46.6,30.28,West,270,0.0,-999.0,84,-99.99,,,0.00,Acu-Link.com,2013-10-29 03:51:00,